Startpagina
METAR-TAF:

METAR-TAF

Vliegvelden :

Evanston-Uinta County Airport (Burns Field)

Evanston, Wyoming, Verenigde Staten

breedte: 41-16-23N, lengte: 111-01-50W, hoogte: 2183 m

Actueel weer

Dit bericht is 57 minuten geleden gemaakt, om 15:53 UTC
Wind 10 kt uit het zuidwesten
Temperatuur 5°C
Vochtigheid 60%
Druk 1029 hPa
Zicht: 16.1 km
Onbewolkt

METAR: KEVW 181553Z AUTO 23010KT 10SM CLR 05/M02 A3039 RMK AO2 SLP271 T00501022

Tijdstip: 10:50 (16:50 UTC)

Verwachting

Dit bericht is 5 uur en het 30 minuten geleden gemaakt, om 11:20 UTC
Verwachting geldig van 18 om 12 UTC tot 19 om 12 UTC
Wind 6 kt uit het westzuidwesten
Zicht: 10 km
Weinig wolken op 4000 ft
Van 18 om 1900 UTC
Wind 12 kt uit het westen met uitschieters tot 18 kt
Zicht: 10 km
Onbewolkt
Van 19 om 0300 UTC
Wind 12 kt uit het westen
Zicht: 10 km
Onbewolkt

TAF: KEVW 181120Z 1812/1912 24006KT P6SM FEW040 FM181900 26012G18KT P6SM SKC FM190300 27012KT P6SM SKC

Waarnemingen en weersverwachtingen van meer dan 4000 vliegvelden (METAR en TAF).

De beschikbare stations zijn de gele en rode punten op de kaart.

Ga met uw muis naar het station om de naam te zien.

Klik dan om waarnemingen en weersverwachtingen te zien.

kaart wijzigen: klik op de groene knoppen met een zwart kruis om in te zoomen, op de groene knop met een streepje om uit te zoomen of op de groene pijlen voor aangrenzende kaarten.


METAR-TAF: